Terminal Aerodrome Forecast
Issued by NWS

Home | Current Version | Previous Version | Text Only | Print | Product List | Glossary On
Versions: 1 2 3 4 5 6 7 8 9 10 11 12 13 14 15 16 17 18 19
000
FTUS45 KFGZ 302300
TAFSEZ
TAF
KSEZ 302339Z 3100/3124 VRB05KT 5SM -SHRA SCT003 BKN015 OVC025
      TEMPO 3100/3104 1SM -RA BR BKN003 OVC010
     FM310400 VRB06KT 6SM -SHRA SCT005 BKN025 OVC050
     FM311500 VRB05KT P6SM VCSH FEW005 SCT025 SCT050
      TEMPO 3117/3121 5SM -RA BKN025 OVC050=

USA.gov is the U.S. government's official web portal to all federal, state and local government web resources and services.